Time;durP1;ratioP1;P1;durP2;ratioP2;P2;SDS_P1;SDS_P2;PMS_P1;PMS_P2;Temp;Humidity;BMP_temperature;BMP_pressure;BME280_temperature;BME280_humidity;BME280_pressure;Samples;Min_cycle;Max_cycle;Signal;HPM_P1;HPM_P2
2021/03/09 00:00:19;;;;;;;137.98;47.03;;;5.70;99.90;;;;;;5105108;27;20209;-76
2021/03/09 00:02:46;;;;;;;153.80;47.63;;;5.70;99.90;;;;;;5104990;28;20696;-76
2021/03/09 00:05:13;;;;;;;146.10;46.85;;;5.70;99.90;;;;;;5104823;28;20716;-75
2021/03/09 00:07:40;;;;;;;135.35;44.85;;;5.70;99.90;;;;;;5104547;27;20201;-77
2021/03/09 00:10:08;;;;;;;144.48;45.90;;;5.80;99.90;;;;;;5106947;28;20246;-76
2021/03/09 00:12:35;;;;;;;141.98;44.20;;;5.70;99.90;;;;;;5101377;28;20212;-76
2021/03/09 00:15:02;;;;;;;149.65;47.05;;;5.80;99.90;;;;;;5109053;27;20193;-75
2021/03/09 00:17:29;;;;;;;144.77;45.13;;;5.70;99.90;;;;;;5106973;28;20553;-76
2021/03/09 00:19:56;;;;;;;136.50;46.08;;;5.70;99.90;;;;;;5106953;28;20554;-76
2021/03/09 00:22:22;;;;;;;155.75;47.42;;;5.80;99.90;;;;;;5102918;27;20201;-75
2021/03/09 00:24:49;;;;;;;153.32;46.92;;;5.80;99.90;;;;;;5104882;27;20712;-77
2021/03/09 00:27:15;;;;;;;141.38;46.28;;;5.80;99.90;;;;;;5106489;28;20718;-75
2021/03/09 00:29:41;;;;;;;156.60;48.42;;;5.80;99.90;;;;;;5102752;28;20266;-76
2021/03/09 00:32:09;;;;;;;151.70;49.08;;;5.80;99.90;;;;;;5105998;27;20200;-77
2021/03/09 00:34:37;;;;;;;157.23;49.65;;;5.80;99.90;;;;;;5106337;28;20209;-76
2021/03/09 00:37:05;;;;;;;167.63;50.50;;;5.80;99.90;;;;;;5105700;28;20228;-77
2021/03/09 00:39:31;;;;;;;152.63;48.83;;;5.80;99.90;;;;;;5105737;27;20217;-77
2021/03/09 00:41:58;;;;;;;171.07;48.03;;;5.80;99.90;;;;;;5104215;28;20201;-77
2021/03/09 00:44:24;;;;;;;157.15;48.88;;;5.80;99.90;;;;;;5105833;28;20230;-76
2021/03/09 00:46:53;;;;;;;163.75;46.83;;;5.80;99.90;;;;;;5105799;28;20197;-78
2021/03/09 00:49:19;;;;;;;162.15;47.72;;;5.80;99.90;;;;;;5106416;28;20201;-78
2021/03/09 00:51:46;;;;;;;166.90;48.42;;;5.90;99.90;;;;;;5106289;28;20204;-78
2021/03/09 00:54:13;;;;;;;176.80;50.45;;;5.80;99.90;;;;;;5104537;28;20859;-77
2021/03/09 00:56:39;;;;;;;180.30;52.30;;;5.90;99.90;;;;;;5104059;28;20225;-77
2021/03/09 00:59:06;;;;;;;170.70;51.17;;;5.90;99.90;;;;;;5105571;28;20209;-77
2021/03/09 01:01:32;;;;;;;183.73;50.88;;;5.90;99.90;;;;;;5102040;27;20208;-78
2021/03/09 01:03:58;;;;;;;184.98;53.08;;;5.90;99.90;;;;;;5105206;28;20205;-78
2021/03/09 01:06:25;;;;;;;181.05;51.30;;;5.90;99.90;;;;;;5103401;28;20222;-77
2021/03/09 01:08:51;;;;;;;193.80;52.33;;;5.90;99.90;;;;;;5118086;27;20209;-77
2021/03/09 01:11:21;;;;;;;182.45;51.60;;;6.00;99.90;;;;;;5102534;28;20262;-78
2021/03/09 01:13:48;;;;;;;195.77;52.67;;;6.00;99.90;;;;;;5109198;27;20201;-77
2021/03/09 01:16:14;;;;;;;189.07;52.50;;;6.00;99.90;;;;;;5104858;28;20559;-77
2021/03/09 01:18:40;;;;;;;202.68;53.58;;;6.00;99.90;;;;;;5105611;28;20606;-77
2021/03/09 01:21:07;;;;;;;201.40;53.95;;;6.00;99.90;;;;;;5105803;28;20206;-78
2021/03/09 01:23:33;;;;;;;193.05;54.85;;;6.00;99.90;;;;;;5103576;28;20658;-79
2021/03/09 01:26:00;;;;;;;194.68;55.15;;;6.00;99.90;;;;;;5102294;28;20246;-78
2021/03/09 01:28:27;;;;;;;211.20;57.55;;;6.00;99.90;;;;;;5102158;27;20197;-77
2021/03/09 01:30:53;;;;;;;196.80;56.50;;;6.00;99.90;;;;;;5100754;28;20205;-77
2021/03/09 01:33:20;;;;;;;222.80;58.25;;;6.10;99.90;;;;;;5104119;28;20288;-77
2021/03/09 01:35:46;;;;;;;206.68;57.35;;;6.10;99.90;;;;;;5107104;28;20201;-77
2021/03/09 01:38:13;;;;;;;217.82;57.97;;;6.10;99.90;;;;;;5105403;28;20224;-77
2021/03/09 01:40:41;;;;;;;211.07;57.10;;;6.10;99.90;;;;;;5102918;28;20556;-77
2021/03/09 01:43:08;;;;;;;210.82;59.55;;;6.10;99.90;;;;;;5105517;28;20204;-78
2021/03/09 01:45:35;;;;;;;209.57;57.38;;;6.10;99.90;;;;;;5104282;28;20684;-79
2021/03/09 01:48:04;;;;;;;206.15;58.85;;;6.20;99.90;;;;;;5105307;28;20354;-77
2021/03/09 01:50:34;;;;;;;221.25;57.80;;;6.20;99.90;;;;;;5104448;28;20204;-77
2021/03/09 01:53:03;;;;;;;207.40;58.58;;;6.20;99.90;;;;;;5106674;27;20666;-77
2021/03/09 01:55:30;;;;;;;210.65;58.50;;;6.20;99.90;;;;;;5104202;28;20201;-80
2021/03/09 01:57:57;;;;;;;205.95;55.83;;;6.30;99.90;;;;;;5106673;28;20688;-77
2021/03/09 02:00:24;;;;;;;205.43;55.67;;;6.30;99.90;;;;;;5106385;28;20207;-77
2021/03/09 02:02:51;;;;;;;185.02;53.90;;;6.30;99.90;;;;;;5098229;28;20201;-78
2021/03/09 02:05:17;;;;;;;174.30;51.72;;;6.40;99.90;;;;;;5104132;28;20598;-77
2021/03/09 02:07:44;;;;;;;166.88;49.67;;;6.40;99.90;;;;;;5102447;28;20218;-77
2021/03/09 02:10:14;;;;;;;152.82;47.63;;;6.30;99.90;;;;;;5106232;28;20212;-78
2021/03/09 02:12:59;;;;;;;143.55;45.33;;;6.40;99.90;;;;;;5102456;28;20209;-76
2021/03/09 02:15:33;;;;;;;135.43;43.70;;;6.40;99.90;;;;;;5106625;28;20205;-79
2021/03/09 02:18:08;;;;;;;123.50;42.08;;;6.40;99.90;;;;;;5103304;28;20216;-78
2021/03/09 02:20:58;;;;;;;118.30;41.35;;;6.40;99.90;;;;;;5103729;28;20573;-79
2021/03/09 02:23:44;;;;;;;126.05;40.53;;;6.40;99.90;;;;;;5103864;28;20197;-78
2021/03/09 02:26:31;;;;;;;108.55;38.10;;;6.40;99.90;;;;;;5104810;28;20201;-77
2021/03/09 02:29:11;;;;;;;101.57;37.08;;;6.40;99.90;;;;;;5102753;28;20209;-77
2021/03/09 02:31:41;;;;;;;107.57;37.95;;;6.40;99.90;;;;;;5101867;28;20205;-77
2021/03/09 02:34:10;;;;;;;107.20;38.10;;;6.40;99.90;;;;;;5103482;28;20246;-75
2021/03/09 02:36:38;;;;;;;120.00;39.15;;;6.40;99.90;;;;;;5104419;28;20213;-78
2021/03/09 02:39:08;;;;;;;103.65;37.08;;;6.50;99.90;;;;;;5104373;28;20193;-77
2021/03/09 02:41:40;;;;;;;99.75;35.75;;;6.40;99.90;;;;;;5100438;28;20201;-74
2021/03/09 02:44:09;;;;;;;94.93;34.70;;;6.40;99.90;;;;;;5104038;28;20197;-76
2021/03/09 02:46:36;;;;;;;101.40;34.00;;;6.50;99.90;;;;;;5103509;28;20213;-74
2021/03/09 02:49:04;;;;;;;100.05;35.05;;;6.40;99.90;;;;;;5101431;28;20267;-75
2021/03/09 02:51:32;;;;;;;104.55;35.03;;;6.40;99.90;;;;;;5103809;28;20205;-75
2021/03/09 02:54:02;;;;;;;105.38;34.72;;;6.40;99.90;;;;;;5107130;28;20209;-74
2021/03/09 02:56:29;;;;;;;99.57;33.33;;;6.50;99.90;;;;;;5110277;28;20258;-75
2021/03/09 02:58:57;;;;;;;99.80;34.88;;;6.40;99.90;;;;;;5106562;27;20297;-78
2021/03/09 03:01:26;;;;;;;106.18;34.97;;;6.40;99.90;;;;;;5105756;27;20201;-78
2021/03/09 03:03:54;;;;;;;103.97;33.95;;;6.40;99.90;;;;;;5107029;28;20246;-78
2021/03/09 03:06:22;;;;;;;110.45;34.53;;;6.40;99.90;;;;;;5108852;28;20229;-77
2021/03/09 03:08:48;;;;;;;104.22;35.05;;;6.50;99.90;;;;;;5105485;28;20207;-77
2021/03/09 03:11:15;;;;;;;93.55;34.63;;;6.50;99.90;;;;;;5110455;28;20200;-77
2021/03/09 03:13:43;;;;;;;100.75;35.08;;;6.40;99.90;;;;;;5105758;28;20235;-78
2021/03/09 03:16:11;;;;;;;96.82;32.10;;;6.50;99.90;;;;;;5106651;28;20230;-77
2021/03/09 03:18:43;;;;;;;97.88;33.15;;;6.50;99.90;;;;;;5105734;28;20197;-76
2021/03/09 03:21:10;;;;;;;79.28;30.90;;;6.50;99.90;;;;;;5105992;28;20235;-75
2021/03/09 03:23:38;;;;;;;91.22;32.28;;;6.50;99.90;;;;;;5108773;27;21306;-79
2021/03/09 03:26:07;;;;;;;96.95;33.15;;;6.50;99.90;;;;;;5107593;28;20209;-78
2021/03/09 03:28:34;;;;;;;87.35;33.00;;;6.50;99.90;;;;;;5106659;28;20239;-77
2021/03/09 03:31:04;;;;;;;87.72;32.80;;;6.50;99.90;;;;;;5105724;27;20748;-78
2021/03/09 03:33:30;;;;;;;97.03;33.58;;;6.50;99.90;;;;;;5107987;28;20297;-78
2021/03/09 03:36:03;;;;;;;107.22;34.72;;;6.50;99.90;;;;;;5108771;28;20205;-78
2021/03/09 03:38:31;;;;;;;109.93;37.08;;;6.50;99.90;;;;;;5106996;28;20220;-76
2021/03/09 03:40:59;;;;;;;110.32;36.70;;;6.50;99.90;;;;;;5107560;28;20212;-79
2021/03/09 03:43:26;;;;;;;130.45;37.50;;;6.50;99.90;;;;;;5106368;28;20262;-78
2021/03/09 03:45:52;;;;;;;131.20;36.90;;;6.50;99.90;;;;;;5106100;28;20197;-78
2021/03/09 03:48:18;;;;;;;123.55;39.65;;;6.50;99.90;;;;;;5106482;28;20197;-78
2021/03/09 03:50:45;;;;;;;123.18;40.47;;;6.60;99.90;;;;;;5108947;28;20189;-79
2021/03/09 03:53:20;;;;;;;140.13;41.40;;;6.60;99.90;;;;;;5105965;28;20633;-79
2021/03/09 03:55:55;;;;;;;136.73;40.40;;;6.60;99.90;;;;;;5107346;28;20669;-78
2021/03/09 03:58:30;;;;;;;134.93;39.88;;;6.60;99.90;;;;;;5107090;27;20672;-78
2021/03/09 04:00:58;;;;;;;138.23;40.78;;;6.60;99.90;;;;;;5101788;28;20299;-78
2021/03/09 04:03:25;;;;;;;144.75;39.83;;;6.60;99.90;;;;;;5103020;27;20217;-78
2021/03/09 04:05:53;;;;;;;122.82;36.70;;;6.60;99.90;;;;;;5103232;28;20227;-78
2021/03/09 04:08:20;;;;;;;121.93;35.92;;;6.70;99.90;;;;;;5106863;27;20197;-78
2021/03/09 04:10:49;;;;;;;123.03;34.70;;;6.70;99.90;;;;;;5107899;28;20206;-79
2021/03/09 04:13:17;;;;;;;100.03;28.13;;;6.70;99.90;;;;;;5107878;28;20212;-78
2021/03/09 04:15:45;;;;;;;99.97;27.13;;;6.70;99.90;;;;;;5107587;28;20205;-79
2021/03/09 04:18:13;;;;;;;72.75;20.33;;;6.70;99.90;;;;;;5106988;27;20243;-78
2021/03/09 04:20:43;;;;;;;53.63;15.77;;;6.70;99.90;;;;;;5106246;27;20208;-79
2021/03/09 04:23:10;;;;;;;57.30;15.20;;;6.70;99.90;;;;;;5105466;28;20711;-79
2021/03/09 04:25:39;;;;;;;39.42;10.35;;;6.70;99.90;;;;;;5101755;28;20263;-79
2021/03/09 04:28:06;;;;;;;35.35;8.05;;;6.70;99.90;;;;;;5104641;27;20202;-79
2021/03/09 04:30:33;;;;;;;27.63;5.25;;;6.70;99.90;;;;;;5105321;27;20235;-79
2021/03/09 04:33:01;;;;;;;29.52;4.68;;;6.70;99.90;;;;;;5109573;28;20204;-78
2021/03/09 04:35:28;;;;;;;23.55;3.83;;;6.70;99.90;;;;;;5106112;28;20209;-78
2021/03/09 04:37:55;;;;;;;16.40;3.67;;;6.70;99.90;;;;;;5106161;28;20597;-79
2021/03/09 04:40:22;;;;;;;22.60;3.05;;;6.70;99.90;;;;;;5103371;28;20280;-79
2021/03/09 04:42:48;;;;;;;15.93;2.63;;;6.70;99.90;;;;;;5105169;28;20212;-79
2021/03/09 04:45:15;;;;;;;14.70;2.78;;;6.60;99.90;;;;;;5108047;28;20212;-81
2021/03/09 04:47:42;;;;;;;14.52;3.63;;;6.60;99.90;;;;;;5105549;28;20196;-79
2021/03/09 04:50:13;;;;;;;11.30;3.20;;;6.60;99.90;;;;;;5106076;27;20208;-79
2021/03/09 04:52:40;;;;;;;28.25;4.25;;;6.60;99.90;;;;;;5106519;28;20250;-79
2021/03/09 04:55:08;;;;;;;17.52;3.70;;;6.60;99.90;;;;;;5107713;28;20209;-80
2021/03/09 04:57:38;;;;;;;18.20;4.68;;;6.60;99.90;;;;;;5107809;28;20213;-79
2021/03/09 05:00:07;;;;;;;27.85;4.68;;;6.60;99.90;;;;;;5106916;28;20571;-79
2021/03/09 05:02:33;;;;;;;24.75;4.85;;;6.60;99.90;;;;;;5101910;28;20225;-79
2021/03/09 05:04:59;;;;;;;28.77;5.25;;;6.70;99.90;;;;;;5105320;28;20209;-79
2021/03/09 05:07:27;;;;;;;29.23;5.95;;;6.70;99.90;;;;;;5107233;28;20602;-79
2021/03/09 05:09:54;;;;;;;25.05;5.75;;;6.60;99.90;;;;;;5105536;28;20304;-78
2021/03/09 05:12:20;;;;;;;24.13;5.50;;;6.60;99.90;;;;;;5106382;28;20193;-79
2021/03/09 05:14:47;;;;;;;27.48;6.78;;;6.60;99.90;;;;;;5103224;28;20214;-78
2021/03/09 05:17:13;;;;;;;25.25;5.75;;;6.60;99.90;;;;;;5103998;28;20217;-79
2021/03/09 05:19:40;;;;;;;25.70;4.68;;;6.60;99.90;;;;;;5103824;27;20592;-79
2021/03/09 05:22:06;;;;;;;26.27;3.95;;;6.70;99.90;;;;;;5108801;27;20204;-81
2021/03/09 05:24:33;;;;;;;23.85;4.32;;;6.70;99.90;;;;;;5105308;28;20212;-78
2021/03/09 05:27:00;;;;;;;25.40;4.15;;;6.70;99.90;;;;;;5107941;28;20201;-78
2021/03/09 05:29:26;;;;;;;27.70;3.65;;;6.70;99.90;;;;;;5104533;28;20253;-80
2021/03/09 05:31:52;;;;;;;13.45;3.03;;;6.70;99.90;;;;;;5104253;28;20201;-80
2021/03/09 05:34:19;;;;;;;18.02;3.13;;;6.60;99.90;;;;;;5106214;27;20258;-79
2021/03/09 05:36:45;;;;;;;13.30;2.22;;;6.70;99.90;;;;;;5100572;28;20213;-79
2021/03/09 05:39:12;;;;;;;14.02;2.30;;;6.60;99.90;;;;;;5107588;28;20201;-80
2021/03/09 05:41:39;;;;;;;11.02;2.03;;;6.70;99.90;;;;;;5107100;28;20544;-79
2021/03/09 05:44:07;;;;;;;12.85;1.75;;;6.70;99.90;;;;;;5105296;28;20262;-79
2021/03/09 05:46:34;;;;;;;10.60;1.60;;;6.60;99.90;;;;;;5105284;28;20657;-78
2021/03/09 05:49:00;;;;;;;10.10;1.75;;;6.60;99.90;;;;;;5105486;28;20576;-79
2021/03/09 05:51:29;;;;;;;17.92;1.83;;;6.60;99.90;;;;;;5107321;28;20209;-80
2021/03/09 05:53:56;;;;;;;10.02;1.75;;;6.60;99.90;;;;;;5104125;28;20205;-78
2021/03/09 05:56:22;;;;;;;18.08;3.15;;;6.60;99.90;;;;;;5105655;28;20201;-78
2021/03/09 05:58:49;;;;;;;11.95;2.20;;;6.60;99.90;;;;;;5104514;28;20208;-79
2021/03/09 06:01:16;;;;;;;16.55;2.28;;;6.60;99.90;;;;;;5106036;28;20212;-77
2021/03/09 06:03:42;;;;;;;18.50;2.03;;;6.60;99.90;;;;;;5101397;27;20205;-77
2021/03/09 06:06:09;;;;;;;13.93;1.85;;;6.60;99.90;;;;;;5103169;28;20225;-81
2021/03/09 06:08:35;;;;;;;8.82;2.03;;;6.60;99.90;;;;;;5105316;28;20296;-77
2021/03/09 06:11:15;;;;;;;10.65;1.77;;;6.60;99.90;;;;;;5102155;28;20214;-78
2021/03/09 06:13:42;;;;;;;11.77;1.75;;;6.60;99.90;;;;;;5103090;28;20288;-77
2021/03/09 06:16:09;;;;;;;14.68;1.92;;;6.60;99.90;;;;;;5105356;28;20564;-78
2021/03/09 06:18:36;;;;;;;9.43;1.80;;;6.60;99.90;;;;;;5104798;28;20228;-80
2021/03/09 06:21:10;;;;;;;10.27;1.83;;;6.60;99.90;;;;;;5102943;28;20209;-77
2021/03/09 06:23:36;;;;;;;11.02;3.90;;;6.60;99.90;;;;;;5105175;28;20646;-76
2021/03/09 06:26:04;;;;;;;11.10;1.70;;;6.60;99.90;;;;;;5103868;28;20197;-77
2021/03/09 06:28:31;;;;;;;2.97;1.33;;;6.60;99.90;;;;;;5106767;28;20220;-77
2021/03/09 06:31:00;;;;;;;14.05;1.73;;;6.60;99.90;;;;;;5108934;28;20222;-78
2021/03/09 06:33:31;;;;;;;8.20;1.38;;;6.70;99.90;;;;;;5105787;27;21006;-77
2021/03/09 06:36:00;;;;;;;7.43;1.35;;;6.70;99.90;;;;;;5109717;28;20668;-77
2021/03/09 06:38:28;;;;;;;9.52;1.48;;;6.70;99.90;;;;;;5106922;28;20463;-77
2021/03/09 06:41:12;;;;;;;12.23;1.48;;;6.70;99.90;;;;;;5110472;28;20216;-77
2021/03/09 06:43:40;;;;;;;7.50;1.50;;;6.70;99.90;;;;;;5107831;28;20617;-76
2021/03/09 06:46:15;;;;;;;21.27;1.85;;;6.70;99.90;;;;;;5103518;27;20210;-77
2021/03/09 06:48:45;;;;;;;11.15;1.60;;;6.70;99.90;;;;;;5108136;28;20201;-76
2021/03/09 06:51:27;;;;;;;9.93;1.65;;;6.70;99.90;;;;;;5105734;28;20205;-76
2021/03/09 06:54:01;;;;;;;8.20;1.73;;;6.70;99.90;;;;;;5108027;27;20730;-77
2021/03/09 06:56:28;;;;;;;10.85;1.40;;;6.70;99.90;;;;;;5105935;28;20208;-77
2021/03/09 06:58:55;;;;;;;9.30;1.30;;;6.70;99.90;;;;;;5108532;28;20193;-76
2021/03/09 07:01:21;;;;;;;16.90;1.13;;;6.70;99.90;;;;;;5107046;28;20204;-78
2021/03/09 07:03:49;;;;;;;9.40;1.08;;;6.70;99.90;;;;;;5108757;27;20207;-77
2021/03/09 07:06:15;;;;;;;10.18;1.33;;;6.80;99.90;;;;;;5105329;28;20231;-78
2021/03/09 07:08:41;;;;;;;5.25;1.15;;;6.80;99.90;;;;;;5107478;28;20612;-77
2021/03/09 07:11:09;;;;;;;5.97;1.30;;;6.80;99.90;;;;;;5107636;27;20246;-77
2021/03/09 07:13:39;;;;;;;10.77;1.75;;;6.80;99.90;;;;;;5108472;28;20209;-78
2021/03/09 07:16:05;;;;;;;8.23;1.17;;;6.80;99.90;;;;;;5107249;27;20262;-77
2021/03/09 07:18:33;;;;;;;6.90;0.98;;;6.80;99.90;;;;;;5107744;27;20244;-76
2021/03/09 07:21:02;;;;;;;13.25;1.50;;;6.80;99.90;;;;;;5109724;28;20213;-77
2021/03/09 07:23:29;;;;;;;10.98;1.40;;;6.80;99.90;;;;;;5108850;28;20205;-78
2021/03/09 07:26:01;;;;;;;11.43;1.42;;;6.80;99.90;;;;;;5110294;28;20216;-80
2021/03/09 07:28:30;;;;;;;10.13;1.33;;;6.80;99.90;;;;;;5105773;27;20185;-78
2021/03/09 07:30:58;;;;;;;6.38;1.00;;;6.90;99.90;;;;;;5108531;28;20197;-79
2021/03/09 07:33:25;;;;;;;11.45;1.60;;;6.90;99.90;;;;;;5107352;28;20217;-78
2021/03/09 07:35:52;;;;;;;9.85;1.60;;;6.90;99.90;;;;;;5107068;28;20235;-77
2021/03/09 07:38:20;;;;;;;11.73;1.40;;;6.90;99.90;;;;;;5109357;28;20564;-79
2021/03/09 07:40:47;;;;;;;7.05;1.50;;;6.90;99.90;;;;;;5105511;28;20214;-77
2021/03/09 07:43:13;;;;;;;11.75;1.40;;;6.90;99.90;;;;;;5109564;27;20208;-76
2021/03/09 07:45:41;;;;;;;10.02;2.30;;;6.90;99.90;;;;;;5106623;28;20729;-80
2021/03/09 07:48:09;;;;;;;8.82;1.63;;;7.00;99.90;;;;;;5106707;27;20568;-77
2021/03/09 07:50:38;;;;;;;12.23;1.60;;;6.90;99.90;;;;;;5116581;27;20820;-76
2021/03/09 07:53:06;;;;;;;11.20;1.45;;;7.00;99.90;;;;;;5109855;28;20732;-76
2021/03/09 07:55:35;;;;;;;13.93;1.40;;;7.00;99.90;;;;;;5106314;28;20198;-76
2021/03/09 07:58:28;;;;;;;3.35;1.20;;;7.10;99.90;;;;;;5107808;28;20586;-80
2021/03/09 08:00:57;;;;;;;7.10;1.40;;;7.10;99.90;;;;;;5071489;27;20627;-76
2021/03/09 08:03:26;;;;;;;9.77;1.25;;;7.10;99.90;;;;;;5108440;27;20215;-77
2021/03/09 08:05:55;;;;;;;8.73;1.00;;;7.10;99.90;;;;;;5103889;27;20189;-80
2021/03/09 08:08:40;;;;;;;7.35;0.98;;;7.20;99.90;;;;;;5104289;28;20204;-76
2021/03/09 08:11:09;;;;;;;7.00;1.17;;;7.20;99.90;;;;;;5107406;28;20220;-74
2021/03/09 08:13:35;;;;;;;4.30;0.75;;;7.20;99.90;;;;;;5106618;28;20224;-76
2021/03/09 08:16:33;;;;;;;6.28;1.10;;;7.30;99.90;;;;;;5105443;27;20197;-78
2021/03/09 08:19:08;;;;;;;4.65;0.90;;;7.30;99.90;;;;;;5105758;28;20633;-75
2021/03/09 08:22:02;;;;;;;25.63;10.35;;;7.30;99.90;;;;;;5107084;28;20208;-78
2021/03/09 08:24:54;;;;;;;9.48;1.48;;;7.30;99.90;;;;;;5045423;28;20197;-75
2021/03/09 08:27:41;;;;;;;9.40;1.02;;;7.30;99.90;;;;;;5101159;28;20286;-78
2021/03/09 08:30:35;;;;;;;8.85;1.17;;;7.30;99.90;;;;;;5103856;27;20193;-77
2021/03/09 08:33:34;;;;;;;4.55;1.15;;;7.30;99.90;;;;;;5103683;27;20254;-78
2021/03/09 08:36:22;;;;;;;6.25;1.10;;;7.30;99.90;;;;;;5102990;28;20205;-78
2021/03/09 08:39:13;;;;;;;8.38;1.08;;;7.30;99.90;;;;;;5104517;28;20290;-76
2021/03/09 08:42:00;;;;;;;3.38;0.90;;;7.30;99.90;;;;;;5104324;27;20200;-79
2021/03/09 08:44:28;;;;;;;4.18;0.90;;;7.40;99.90;;;;;;5106561;28;20201;-77
2021/03/09 08:46:57;;;;;;;8.82;1.20;;;7.40;99.90;;;;;;5104213;28;20566;-75
2021/03/09 08:49:46;;;;;;;3.38;0.80;;;7.40;99.90;;;;;;5108230;28;20717;-77
2021/03/09 08:52:40;;;;;;;6.50;0.93;;;7.40;99.90;;;;;;5104172;28;20198;-77
2021/03/09 08:55:07;;;;;;;5.90;1.17;;;7.40;99.90;;;;;;5103471;28;20292;-75
2021/03/09 08:57:34;;;;;;;9.57;1.00;;;7.40;99.90;;;;;;5101788;28;20343;-76
2021/03/09 09:00:06;;;;;;;7.97;1.23;;;7.40;99.90;;;;;;5107700;28;20209;-77
2021/03/09 09:02:32;;;;;;;7.45;1.00;;;7.40;99.90;;;;;;5106409;28;21458;-75
2021/03/09 09:05:01;;;;;;;6.60;0.95;;;7.50;99.90;;;;;;5107153;28;20200;-75
2021/03/09 09:07:31;;;;;;;8.82;1.35;;;7.50;99.90;;;;;;5123866;27;20221;-76
2021/03/09 09:09:59;;;;;;;5.82;1.20;;;7.50;99.90;;;;;;5105723;28;20196;-80
2021/03/09 09:12:31;;;;;;;8.13;1.80;;;7.50;99.90;;;;;;5106176;28;20201;-77
2021/03/09 09:15:07;;;;;;;5.88;0.70;;;7.50;99.90;;;;;;5108808;28;20201;-77
2021/03/09 09:17:34;;;;;;;7.60;1.08;;;7.50;99.90;;;;;;5105424;28;20212;-77
2021/03/09 09:20:04;;;;;;;4.07;1.05;;;7.50;99.90;;;;;;5109322;28;20564;-78
2021/03/09 09:22:31;;;;;;;6.53;1.02;;;7.50;99.90;;;;;;5105526;28;20201;-76
2021/03/09 09:24:58;;;;;;;6.20;1.10;;;7.50;99.90;;;;;;5106489;28;20209;-77
2021/03/09 09:27:25;;;;;;;7.70;0.80;;;7.50;99.90;;;;;;5104962;28;20204;-78
2021/03/09 09:29:53;;;;;;;4.43;0.90;;;7.50;99.90;;;;;;5107903;28;20201;-75
2021/03/09 09:32:21;;;;;;;5.03;0.60;;;7.60;99.90;;;;;;5104450;28;20201;-76
2021/03/09 09:34:47;;;;;;;2.67;0.60;;;7.60;99.90;;;;;;5104982;27;20198;-77
2021/03/09 09:37:16;;;;;;;5.28;0.70;;;7.60;99.90;;;;;;5106963;28;20224;-77
2021/03/09 09:39:43;;;;;;;1.55;0.50;;;7.60;99.90;;;;;;5107722;28;20223;-76
2021/03/09 09:42:13;;;;;;;1.38;0.50;;;7.60;99.90;;;;;;5106636;28;20212;-76
2021/03/09 09:44:40;;;;;;;3.35;0.60;;;7.60;99.90;;;;;;5106069;28;20675;-80
2021/03/09 09:47:08;;;;;;;1.02;0.55;;;7.60;99.90;;;;;;5105928;28;20200;-76
2021/03/09 09:49:41;;;;;;;5.43;3.10;;;7.60;99.90;;;;;;5105626;28;20208;-76
2021/03/09 09:52:15;;;;;;;4.35;0.70;;;7.60;99.90;;;;;;5105077;28;20224;-77
2021/03/09 09:54:52;;;;;;;2.05;0.80;;;7.60;99.90;;;;;;5103898;28;20221;-76
2021/03/09 09:57:19;;;;;;;1.98;0.90;;;7.70;99.90;;;;;;5104903;28;20324;-75
2021/03/09 09:59:45;;;;;;;3.05;0.95;;;7.70;99.90;;;;;;5105099;28;20225;-75
2021/03/09 10:02:19;;;;;;;5.63;1.15;;;7.80;99.90;;;;;;5101124;28;20204;-75
2021/03/09 10:04:47;;;;;;;4.30;0.98;;;7.80;99.90;;;;;;5104687;28;20564;-76
2021/03/09 10:07:19;;;;;;;6.57;0.90;;;7.90;99.90;;;;;;5107038;28;20328;-75
2021/03/09 10:10:09;;;;;;;3.13;0.82;;;7.90;99.90;;;;;;5105126;28;20204;-77
2021/03/09 10:12:37;;;;;;;8.02;0.98;;;8.00;99.90;;;;;;5102260;28;20220;-76
2021/03/09 10:15:06;;;;;;;2.10;0.77;;;8.00;99.90;;;;;;5104357;28;20201;-75
2021/03/09 10:17:32;;;;;;;5.25;0.75;;;8.00;99.90;;;;;;5106836;28;20213;-76
2021/03/09 10:20:00;;;;;;;7.00;0.80;;;8.10;99.90;;;;;;5105394;28;20208;-77
2021/03/09 10:22:27;;;;;;;4.57;0.75;;;8.10;99.90;;;;;;5108267;28;20196;-76
2021/03/09 10:25:07;;;;;;;2.63;0.80;;;8.20;99.90;;;;;;5103784;28;20274;-77
2021/03/09 10:27:33;;;;;;;2.85;0.82;;;8.20;99.90;;;;;;5107589;28;20279;-77
2021/03/09 10:30:01;;;;;;;5.28;1.05;;;8.20;99.90;;;;;;5104890;28;20893;-77
2021/03/09 10:32:27;;;;;;;2.80;1.08;;;8.30;99.90;;;;;;5105378;28;20197;-76
2021/03/09 10:34:55;;;;;;;3.70;1.10;;;8.40;99.90;;;;;;5106535;28;20673;-76
2021/03/09 10:37:34;;;;;;;1.67;1.00;;;8.40;99.90;;;;;;5106278;28;20201;-76
2021/03/09 10:40:03;;;;;;;1.98;0.90;;;8.50;99.90;;;;;;5104223;28;20228;-77
2021/03/09 10:42:31;;;;;;;2.38;0.70;;;8.60;99.90;;;;;;5105777;28;20205;-76
2021/03/09 10:45:00;;;;;;;2.67;1.10;;;8.60;99.90;;;;;;5105729;28;20201;-77
2021/03/09 10:47:26;;;;;;;1.73;1.20;;;8.60;99.90;;;;;;5104329;28;20244;-77
2021/03/09 10:49:53;;;;;;;2.40;1.08;;;8.60;99.90;;;;;;5102711;28;20212;-74
2021/03/09 10:52:19;;;;;;;7.68;1.35;;;8.60;99.90;;;;;;5102856;28;20202;-75
2021/03/09 10:54:46;;;;;;;6.32;1.35;;;8.60;99.90;;;;;;5105402;28;20634;-76
2021/03/09 10:57:13;;;;;;;2.40;1.00;;;8.60;99.90;;;;;;5101105;28;21013;-77
2021/03/09 10:59:39;;;;;;;4.90;1.10;;;8.60;99.90;;;;;;5105534;28;20202;-76
2021/03/09 11:02:09;;;;;;;5.55;1.30;;;8.60;99.90;;;;;;5101351;28;20598;-78
2021/03/09 11:04:36;;;;;;;3.65;1.00;;;8.60;99.90;;;;;;5106377;28;20209;-78
2021/03/09 11:07:02;;;;;;;18.88;3.05;;;8.60;99.90;;;;;;5103244;28;20320;-77
2021/03/09 11:09:29;;;;;;;13.10;1.45;;;8.50;99.90;;;;;;5106783;28;20209;-80
2021/03/09 11:11:56;;;;;;;4.13;1.17;;;8.50;99.90;;;;;;5106997;28;20197;-76
2021/03/09 11:14:22;;;;;;;4.57;1.45;;;8.50;99.90;;;;;;5107526;28;20214;-76
2021/03/09 11:16:49;;;;;;;7.88;1.63;;;8.50;99.90;;;;;;5109948;28;20692;-82
2021/03/09 11:19:15;;;;;;;7.03;1.67;;;8.40;99.90;;;;;;5111522;28;20276;-76
2021/03/09 11:21:41;;;;;;;9.93;1.30;;;8.50;99.90;;;;;;5109409;28;20669;-81
2021/03/09 11:24:08;;;;;;;4.88;1.30;;;8.50;99.90;;;;;;5110882;28;20254;-80
2021/03/09 11:26:35;;;;;;;8.63;1.40;;;8.50;99.90;;;;;;5109611;28;20611;-79
2021/03/09 11:29:02;;;;;;;5.07;1.35;;;8.50;99.90;;;;;;5110822;28;20205;-82
2021/03/09 11:31:29;;;;;;;8.07;1.55;;;8.50;99.90;;;;;;5109789;27;20202;-79
2021/03/09 11:33:55;;;;;;;5.43;1.40;;;8.50;99.90;;;;;;5108316;28;20201;-75
2021/03/09 11:36:22;;;;;;;7.53;1.55;;;8.40;99.90;;;;;;5110866;28;20193;-75
2021/03/09 11:38:49;;;;;;;7.50;1.45;;;8.40;99.90;;;;;;5109334;28;20228;-79
2021/03/09 11:41:16;;;;;;;6.55;1.30;;;8.40;99.90;;;;;;5108395;28;21062;-76
2021/03/09 11:43:43;;;;;;;9.88;1.98;;;8.40;99.90;;;;;;5110403;28;20653;-79
2021/03/09 11:46:11;;;;;;;11.30;2.47;;;8.40;99.90;;;;;;5110557;28;20201;-77
2021/03/09 11:48:38;;;;;;;10.90;2.85;;;8.40;99.90;;;;;;5105330;28;20194;-76
2021/03/09 11:51:05;;;;;;;8.32;4.10;;;8.40;99.90;;;;;;5109758;28;20738;-79
2021/03/09 11:53:31;;;;;;;8.10;4.32;;;8.40;99.90;;;;;;5112024;28;20274;-80
2021/03/09 11:55:57;;;;;;;9.75;4.95;;;8.40;99.90;;;;;;5108745;28;20543;-82
2021/03/09 11:58:25;;;;;;;11.82;5.35;;;8.40;99.90;;;;;;5109918;28;20308;-79
2021/03/09 12:00:52;;;;;;;11.23;4.95;;;8.40;99.90;;;;;;5110710;28;20201;-78
2021/03/09 12:03:22;;;;;;;13.65;4.05;;;8.40;99.90;;;;;;5109485;28;21009;-80
2021/03/09 12:05:48;;;;;;;11.82;5.43;;;8.40;99.90;;;;;;5106918;28;20226;-79
2021/03/09 12:08:14;;;;;;;22.77;5.75;;;8.40;99.90;;;;;;5108841;28;20282;-79
2021/03/09 12:10:41;;;;;;;11.80;5.60;;;8.40;99.90;;;;;;5108046;27;20197;-78
2021/03/09 12:13:07;;;;;;;12.00;5.20;;;8.40;99.90;;;;;;5109187;28;20657;-79
2021/03/09 12:15:35;;;;;;;14.00;5.18;;;8.40;99.90;;;;;;5107747;28;20702;-78
2021/03/09 12:18:01;;;;;;;14.63;4.65;;;8.40;99.90;;;;;;5110488;28;20221;-77
2021/03/09 12:20:29;;;;;;;10.88;5.15;;;8.40;99.90;;;;;;5108058;28;20678;-78
2021/03/09 12:22:56;;;;;;;15.43;4.78;;;8.40;99.90;;;;;;5110006;28;20190;-78
2021/03/09 12:25:22;;;;;;;11.13;4.32;;;8.40;99.90;;;;;;5105112;28;20686;-76
2021/03/09 12:27:49;;;;;;;13.45;4.50;;;8.40;99.90;;;;;;5108437;28;20212;-77
2021/03/09 12:30:16;;;;;;;11.45;4.20;;;8.30;99.90;;;;;;5103142;27;20555;-80
2021/03/09 12:32:43;;;;;;;11.85;4.70;;;8.30;99.90;;;;;;5106457;28;20205;-77
2021/03/09 12:35:11;;;;;;;11.38;4.60;;;8.30;99.90;;;;;;5106883;28;20204;-77
2021/03/09 12:37:38;;;;;;;10.55;4.40;;;8.30;99.90;;;;;;5109619;28;20217;-79
2021/03/09 12:40:06;;;;;;;11.05;4.80;;;8.30;99.90;;;;;;5106307;28;20540;-82
2021/03/09 12:42:32;;;;;;;12.07;4.88;;;8.30;99.90;;;;;;5107062;27;20732;-77
2021/03/09 12:44:59;;;;;;;13.85;5.45;;;8.30;99.90;;;;;;5106981;28;20205;-78
2021/03/09 12:47:26;;;;;;;14.38;6.13;;;8.30;99.90;;;;;;5105677;28;20201;-76
2021/03/09 12:49:52;;;;;;;13.57;6.15;;;8.30;99.90;;;;;;5106441;28;20197;-77
2021/03/09 12:52:19;;;;;;;14.57;6.47;;;8.40;99.90;;;;;;5105103;28;20208;-76